• Join FlightAware (Why Join?)
  • Login
  • US Flag 
02:11AM EDT


 

Airport Tracker/Info


-or-


 

Live Flight TrackerFlight Track Log ✈ N75AW ✈ 10-Nov-2013 ✈ KAPF - KGRD

Flight Track Log - Related Links

Times and Time Zones

All times are in EST time to prevent confusion due to time zone crossing. See the N75AW flight status page for this flight to view local times or setup timezone preferences in your user account.

Time Position Orientation Groundspeed Altitude Reporting Facility
EST Latitude Longitude Course Direction KTS MPH feet Rate Location/Type
10:52AM 26.2406 -81.6950 354° North 145 167 5,900  Level Miami Center
10:53AM 26.2753 -81.7194 328° Northwest 111 128 7,300 1,500 Climbing Miami Center
10:54AM 26.3164 -81.7328 344° North 137 158 9,000 1,620 Climbing Miami Center
10:55AM 26.3558 -81.7414 349° North 148 170 10,600 1,500 Climbing Miami Center
10:56AM 26.5569 -81.7934 354° North  Level Estimated
10:56AM 26.4000 -81.7361 North 143 165 12,100  Level Miami Center
10:57AM 26.4525 -81.7269 North 157 181 13,900 1,620 Climbing Miami Center
10:58AM 26.5006 -81.7194 North 171 197 15,400 1,500 Climbing Miami Center
10:59AM 26.5511 -81.7100 North 177 204 17,000 1,380 Climbing Miami Center
11:00AM 26.5994 -81.7028 North 177 204 18,200 1,200 Climbing Miami Center
11:01AM 26.6497 -81.6931 10° North 182 209 19,500 1,260 Climbing Miami Center
11:02AM 26.7000 -81.6858 North 182 209 20,800 1,200 Climbing Miami Center
11:03AM 26.7506 -81.6764 North 182 209 21,900 960 Climbing Miami Center
11:04AM 26.8008 -81.6692 North 182 209 22,800 840 Climbing Miami Center
11:05AM 26.8556 -81.6550 13° North 182 209 23,600 900 Climbing Miami Center
11:06AM 26.9125 -81.6436 10° North 193 222 24,600 780 Climbing Miami Center
11:07AM 26.9669 -81.6364 North 199 229 25,200 300 Climbing Miami Center
11:08AM 27.0236 -81.6225 12° North 217 250 25,200  Level Miami Center
11:09AM 27.1036 -81.6069 10° North 250 288 25,200  Level Miami Center
11:10AM 27.1792 -81.5939 North 265 305 25,200  Level Miami Center
11:11AM 27.2314 -81.5283 48° Northeast 259 298 25,200  Level Miami Center
11:12AM 27.2650 -81.4525 63° Northeast 268 308 25,200  Level Miami Center
11:13AM 27.3314 -81.3992 36° Northeast 276 318 25,200  Level Miami Center
11:14AM 27.4103 -81.3531 27° Northeast 284 327 25,200  Level Miami Center
11:15AM 27.4803 -81.3114 28° Northeast 284 327 25,200  Level Miami Center
11:16AM 27.5594 -81.3144 358° North 276 318 25,200  Level Miami Center
11:17AM 27.6367 -81.3222 355° North 276 318 25,200  Level Miami Center
11:18AM 27.7136 -81.3228 360° North 276 318 25,200  Level Miami Center
11:19AM 27.7908 -81.3258 358° North 271 312 25,200  Level Miami Center
11:20AM 27.8681 -81.3242 North 271 312 25,200  Level Miami Center
11:21AM 27.9453 -81.3247 360° North 271 312 25,200  Level Miami Center
11:22AM 28.0142 -81.3275 358° North 271 312 25,200  Level Miami Center
11:23AM 28.0892 -81.3281 360° North 271 312 25,200  Level Miami Center
11:24AM 28.1747 -81.3314 358° North 271 312 25,200  Level Miami Center
11:26AM 28.3556 -81.3381 358° North 276 318 25,200  Level Jacksonville Center
11:27AM 28.4306 -81.3464 354° North 276 318 25,200  Level Jacksonville Center
11:28AM 28.5058 -81.3594 351° North 276 318 25,200  Level Jacksonville Center
11:29AM 28.5833 -81.3678 355° North 276 318 25,200  Level Jacksonville Center
11:30AM 28.6606 -81.3783 353° North 276 318 25,200  Level Jacksonville Center
11:31AM 28.7381 -81.3892 353° North 276 318 25,200  Level Jacksonville Center
11:32AM 28.8133 -81.3997 353° North 276 318 25,200  Level Jacksonville Center
11:33AM 28.8906 -81.4106 353° North 276 318 25,200  Level Jacksonville Center
11:34AM 28.9700 -81.4211 353° North 276 318 25,200  Level Jacksonville Center
11:35AM 29.0472 -81.4319 353° North 276 318 25,200  Level Jacksonville Center
11:36AM 29.1247 -81.4403 355° North 276 318 25,200  Level Jacksonville Center
11:37AM 29.2000 -81.4511 353° North 276 318 25,200  Level Jacksonville Center
11:38AM 29.2689 -81.4594 354° North 276 318 25,200  Level Jacksonville Center
11:39AM 29.3464 -81.4703 353° North 276 318 25,200  Level Jacksonville Center
11:40AM 29.4156 -81.4978 341° North 271 312 25,200  Level Jacksonville Center
11:41AM 29.4786 -81.5328 334° Northwest 261 300 25,200  Level Jacksonville Center
11:42AM 29.5539 -81.5508 348° North 256 295 25,200  Level Jacksonville Center
11:43AM 29.6311 -81.5594 354° North 261 300 25,200  Level Jacksonville Center
11:44AM 29.7064 -81.5678 355° North 271 312 25,200  Level Jacksonville Center
11:45AM 29.7836 -81.5789 353° North 276 318 25,200  Level Jacksonville Center
11:46AM 29.8589 -81.5872 355° North 276 318 25,200  Level Jacksonville Center
11:47AM 29.9322 -81.5958 354° North 276 318 25,200  Level Jacksonville Center
11:48AM 30.0094 -81.6069 353° North 276 318 25,200  Level Jacksonville Center
11:49AM 30.0828 -81.6156 354° North 276 318 25,200  Level Jacksonville Center
11:50AM 30.1578 -81.6242 354° North 276 318 25,200  Level Jacksonville Center
11:51AM 30.2331 -81.6328 354° North 276 318 25,200  Level Jacksonville Center
11:52AM 30.3083 -81.6414 354° North 276 318 25,200  Level Jacksonville Center
11:53AM 30.3836 -81.6500 354° North 276 318 25,200 -60 Level Jacksonville Center
11:54AM 30.4589 -81.6611 353° North 276 318 25,100  Descending Jacksonville Center
11:55AM 30.5322 -81.6722 353° North 276 318 25,200  Climbing Jacksonville Center
11:56AM 30.6072 -81.6808 354° North 276 318 25,200  Level Jacksonville Center
11:57AM 30.6867 -81.6919 353° North 271 312 25,200  Level Jacksonville Center
11:58AM 30.7619 -81.7008 354° North 271 312 25,200  Level Jacksonville Center
11:59AM 30.8353 -81.7094 354° North 271 312 25,200  Level Jacksonville Center
12:00PM 30.9064 -81.7208 352° North 271 312 25,200  Level Jacksonville Center
12:01PM 30.9817 -81.7294 354° North 271 312 25,200 -60 Level Jacksonville Center
12:02PM 31.0547 -81.7406 353° North 266 306 25,100  Descending Jacksonville Center
12:03PM 31.1300 -81.7494 354° North 261 300 25,200  Climbing Jacksonville Center
12:04PM 31.2011 -81.7583 354° North 256 295 25,200  Level Jacksonville Center
12:05PM 31.2722 -81.7697 352° North 256 295 25,200  Level Jacksonville Center
12:06PM 31.3453 -81.7736 357° North 256 295 25,200  Level Jacksonville Center
12:07PM 31.4183 -81.7850 352° North 256 295 25,200  Level Jacksonville Center
12:08PM 31.4853 -81.7939 354° North 256 295 25,200  Level Jacksonville Center
12:09PM 31.5669 -81.8050 353° North 261 300 25,200  Level Jacksonville Center
12:10PM 31.6378 -81.8139 354° North 261 300 25,200  Level Jacksonville Center
12:11PM 31.7028 -81.8231 353° North 261 300 25,200  Level Jacksonville Center
12:12PM 31.7842 -81.8342 353° North 256 295 25,200  Level Jacksonville Center
12:13PM 31.8489 -81.8433 353° North 256 295 25,200  Level Jacksonville Center
12:14PM 31.9283 -81.8522 355° North 256 295 25,200  Level Jacksonville Center
12:15PM 32.0017 -81.8636 352° North 256 295 25,200  Level Jacksonville Center
12:16PM 32.0686 -81.8728 353° North 256 295 25,200 -60 Level Jacksonville Center
12:18PM 32.1911 -81.8864 355° North 257 296 25,100  Descending Atlanta Center
12:19PM 32.2603 -81.8947 354° North 257 296 25,200  Climbing Atlanta Center
12:20PM 32.3272 -81.9028 354° North 257 296 25,200 -60 Level Atlanta Center
12:21PM 32.4025 -81.9133 353° North 262 302 25,100  Descending Atlanta Center
12:22PM 32.4736 -81.9239 353° North 262 302 25,200  Climbing Atlanta Center
12:23PM 32.5489 -81.9294 356° North 262 302 25,200  Level Atlanta Center
12:24PM 32.6219 -81.9400 353° North 262 302 25,200 -60 Level Atlanta Center
12:25PM 32.6975 -81.9506 353° North 257 296 25,100 -60 Descending Atlanta Center
12:26PM 32.7706 -81.9636 351° North 257 296 25,100 -300 Level Atlanta Center
12:27PM 32.8458 -81.9719 355° North 262 302 24,500 -540 Descending Atlanta Center
12:28PM 32.9253 -81.9822 354° North 274 315 24,100 -240 Descending Atlanta Center
12:29PM 33.0047 -81.9903 355° North 274 315 24,100  Level Atlanta Center
12:30PM 33.0781 -82.0036 351° North 274 315 24,100 -300 Level Atlanta Center
12:31PM 33.1533 -82.0142 353° North 274 315 23,600 -1,260 Descending Atlanta Center
12:32PM 33.2414 -82.0269 353° North 293 337 21,600 -1,740 Descending Atlanta Center
12:33PM 33.3228 -82.0350 355° North 300 345 20,200 -1,140 Descending Atlanta Center
12:34PM 33.4022 -82.0456 354° North 292 336 19,400 -960 Descending Atlanta Center
12:35PM 33.4736 -82.0564 353° North 277 319 18,300 -1,680 Descending Atlanta Center
12:36PM 33.5614 -82.0669 354° North 268 308 16,100 -2,160 Descending Atlanta Center
12:37PM 33.6408 -82.0775 354° North 278 320 14,000 -1,920 Descending Atlanta Center
12:38PM 33.7203 -82.0883 354° North 284 327 12,300 -1,500 Descending Atlanta Center
12:39PM 33.7936 -82.0992 353° North 277 319 11,100 -600 Descending Atlanta Center
12:40PM 33.8564 -82.1078 354° North 251 289 11,100  Level Atlanta Center
12:41PM 33.9147 -82.1164 353° North 226 260 11,100 -600 Level Atlanta Center
12:42PM 33.9733 -82.1225 355° North 211 243 10,000 -1,500 Descending Atlanta Center
12:43PM 34.0319 -82.1311 353° North 211 243 8,100 -1,860 Descending Atlanta Center
12:44PM 34.0947 -82.1397 354° North 211 243 6,300 -1,020 Descending Atlanta Center
12:45PM 34.1469 -82.1489 352° North 211 243 6,100 -240 Descending Atlanta Center